createdAt,value
2018-02-13T00:01:06.144Z,0.30
2018-02-13T00:03:34.565Z,0.20
2018-02-13T00:06:02.864Z,0.40
2018-02-13T00:08:31.049Z,0.20
2018-02-13T00:10:59.312Z,0.20
2018-02-13T00:13:28.265Z,0.20
2018-02-13T00:15:56.476Z,0.30
2018-02-13T00:18:24.816Z,0.00
2018-02-13T00:20:52.998Z,0.60
2018-02-13T00:23:21.176Z,0.10
2018-02-13T00:25:49.435Z,-0.20
2018-02-13T00:28:17.625Z,-0.20
2018-02-13T00:30:46.198Z,0.60
2018-02-13T00:33:14.416Z,0.30
2018-02-13T00:35:42.647Z,0.20
2018-02-13T00:38:10.847Z,0.20
2018-02-13T00:40:39.794Z,0.60
2018-02-13T00:43:08.108Z,0.10
2018-02-13T00:45:37.090Z,0.00
2018-02-13T00:48:06.061Z,0.00
2018-02-13T00:50:34.312Z,0.50
2018-02-13T00:53:02.520Z,0.50
2018-02-13T00:55:30.726Z,0.10
2018-02-13T00:57:58.945Z,0.20
2018-02-13T01:00:27.166Z,1.10
2018-02-13T01:02:56.118Z,0.40
2018-02-13T01:05:24.324Z,0.60
2018-02-13T01:07:53.295Z,0.60
2018-02-13T01:10:21.500Z,0.60
2018-02-13T01:12:50.472Z,0.50
2018-02-13T01:15:18.669Z,0.60
2018-02-13T01:17:47.645Z,0.30
2018-02-13T01:20:16.597Z,0.80
2018-02-13T01:22:44.784Z,0.80
2018-02-13T01:25:13.181Z,0.70
2018-02-13T01:27:41.454Z,0.80
2018-02-13T01:30:09.687Z,0.90
2018-02-13T01:32:38.029Z,0.70
2018-02-13T01:35:06.228Z,0.90
2018-02-13T01:37:34.464Z,0.90
2018-02-13T01:40:03.441Z,0.60
2018-02-13T01:42:31.736Z,0.60
2018-02-13T01:45:00.689Z,0.90
2018-02-13T01:47:28.913Z,0.70
2018-02-13T01:49:57.132Z,0.70
2018-02-13T01:52:25.336Z,0.90
2018-02-13T01:54:54.308Z,0.60
2018-02-13T01:57:22.529Z,1.30
2018-02-13T01:59:50.800Z,0.70
2018-02-13T02:02:20.993Z,1.30
2018-02-13T02:04:49.702Z,0.50
2018-02-13T02:07:17.900Z,1.00
2018-02-13T02:09:46.081Z,0.80
2018-02-13T02:12:14.324Z,0.90
2018-02-13T02:14:43.292Z,1.40
2018-02-13T02:17:11.473Z,2.10
2018-02-13T02:19:40.476Z,1.80
2018-02-13T02:22:09.545Z,1.40
2018-02-13T02:24:37.849Z,1.80
2018-02-13T02:27:06.917Z,1.30
2018-02-13T02:29:35.224Z,1.60
2018-02-13T02:32:03.433Z,0.90
2018-02-13T02:34:31.682Z,1.40
2018-02-13T02:36:59.939Z,0.90
2018-02-13T02:39:28.921Z,0.90
2018-02-13T02:41:57.913Z,1.80
2018-02-13T02:44:26.881Z,0.90
2018-02-13T02:46:55.169Z,1.20
2018-02-13T02:49:23.374Z,1.10
2018-02-13T02:51:51.612Z,1.80
2018-02-13T02:54:20.311Z,2.10
2018-02-13T02:56:49.876Z,2.00
2018-02-13T02:59:18.060Z,2.10
2018-02-13T03:01:46.461Z,1.50
2018-02-13T03:04:14.641Z,2.20
2018-02-13T03:06:42.847Z,1.90
2018-02-13T03:09:11.068Z,1.90
2018-02-13T03:11:39.279Z,2.00
2018-02-13T03:14:08.371Z,1.90
2018-02-13T03:16:37.347Z,1.80
2018-02-13T03:19:06.312Z,2.00
2018-02-13T03:21:34.652Z,0.90
2018-02-13T03:24:02.841Z,1.30
2018-02-13T03:26:31.052Z,1.40
2018-02-13T03:28:59.248Z,1.20
2018-02-13T03:31:28.305Z,1.30
2018-02-13T03:33:56.506Z,1.10
2018-02-13T03:36:25.489Z,1.30
2018-02-13T03:38:53.698Z,0.60
2018-02-13T03:41:21.911Z,1.20
2018-02-13T03:43:50.136Z,1.10
2018-02-13T03:46:18.316Z,1.30
2018-02-13T03:48:46.585Z,1.50
2018-02-13T03:51:14.773Z,1.00
2018-02-13T03:53:42.954Z,1.50
2018-02-13T03:56:12.024Z,1.40
2018-02-13T03:58:40.236Z,1.00
2018-02-13T04:01:08.440Z,0.50
2018-02-13T04:03:36.696Z,0.30
2018-02-13T04:06:04.880Z,0.90
2018-02-13T04:08:33.856Z,0.30
2018-02-13T04:11:02.060Z,0.10
2018-02-13T04:13:30.240Z,0.70
2018-02-13T04:15:59.227Z,0.10
2018-02-13T04:18:27.436Z,-0.10
2018-02-13T04:20:55.678Z,-0.10
2018-02-13T04:23:23.889Z,0.20
2018-02-13T04:25:52.128Z,0.20
2018-02-13T04:28:20.746Z,0.20
2018-02-13T04:30:49.021Z,0.50
2018-02-13T04:33:17.431Z,0.10
2018-02-13T04:35:45.639Z,0.40
2018-02-13T04:38:14.852Z,0.10
2018-02-13T04:40:43.829Z,0.10
2018-02-13T04:43:12.836Z,0.70
2018-02-13T04:45:42.014Z,0.10
2018-02-13T04:48:10.197Z,0.20
2018-02-13T04:50:39.152Z,0.50
2018-02-13T04:53:07.392Z,0.10
2018-02-13T04:55:35.647Z,0.10
2018-02-13T04:58:03.836Z,0.00
2018-02-13T05:00:32.046Z,0.30
2018-02-13T05:03:00.264Z,0.20
2018-02-13T05:05:29.251Z,-0.40
2018-02-13T05:07:58.299Z,-0.40
2018-02-13T05:10:26.490Z,-0.40
2018-02-13T05:12:54.708Z,-0.40
2018-02-13T05:15:22.956Z,-0.30
2018-02-13T05:17:51.224Z,-0.50
2018-02-13T05:20:19.525Z,-0.30
2018-02-13T05:22:49.336Z,-0.10
2018-02-13T05:25:18.308Z,-0.10
2018-02-13T05:27:47.320Z,-0.30
2018-02-13T05:30:16.276Z,-0.40
2018-02-13T05:32:44.499Z,-0.20
2018-02-13T05:35:12.798Z,-0.30
2018-02-13T05:37:41.021Z,-0.20
2018-02-13T05:40:10.055Z,-0.10
2018-02-13T05:42:38.969Z,-0.40
2018-02-13T05:45:07.184Z,-0.20
2018-02-13T05:47:36.284Z,-0.40
2018-02-13T05:50:06.069Z,-0.10
2018-02-13T05:52:34.358Z,0.40
2018-02-13T05:55:03.474Z,0.30
2018-02-13T05:57:31.713Z,-0.40
2018-02-13T05:59:59.948Z,-0.30
2018-02-13T06:02:28.980Z,-0.60
2018-02-13T06:04:57.208Z,-0.70
2018-02-13T06:07:25.424Z,-0.50
2018-02-13T06:09:53.666Z,0.10
2018-02-13T06:12:21.884Z,-0.40
2018-02-13T06:14:50.077Z,-0.50
2018-02-13T06:17:19.176Z,-0.40
2018-02-13T06:19:47.368Z,-0.30
2018-02-13T06:22:15.622Z,-0.50
2018-02-13T06:24:43.897Z,-0.30
2018-02-13T06:27:12.862Z,-0.60
2018-02-13T06:29:41.147Z,-0.70
2018-02-13T06:32:09.441Z,-0.80
2018-02-13T06:34:37.632Z,-1.00
2018-02-13T06:37:05.864Z,-0.80
2018-02-13T06:39:34.072Z,-0.80
2018-02-13T06:42:02.265Z,-0.40
2018-02-13T06:44:30.497Z,-0.70
2018-02-13T06:46:59.453Z,-0.50
2018-02-13T06:49:27.676Z,-0.50
2018-02-13T06:51:55.926Z,-0.40
2018-02-13T06:54:24.128Z,-0.30
2018-02-13T06:56:52.336Z,0.00
2018-02-13T06:59:20.596Z,0.00
2018-02-13T07:01:48.794Z,-0.50
2018-02-13T07:04:16.997Z,0.00
2018-02-13T07:06:45.296Z,0.40
2018-02-13T07:09:13.492Z,0.30
2018-02-13T07:11:41.674Z,0.00
2018-02-13T07:14:10.101Z,0.20
2018-02-13T07:16:38.418Z,-0.30
2018-02-13T07:19:06.768Z,0.20
2018-02-13T07:21:35.765Z,0.30
2018-02-13T07:24:04.287Z,-0.30
2018-02-13T07:26:32.516Z,-0.30
2018-02-13T07:29:01.497Z,0.10
2018-02-13T07:31:30.482Z,-0.10
2018-02-13T07:33:58.704Z,0.00
2018-02-13T07:36:26.920Z,0.30
2018-02-13T07:38:55.112Z,0.30
2018-02-13T07:41:24.196Z,0.30
2018-02-13T07:43:52.415Z,0.40
2018-02-13T07:46:20.624Z,0.50
2018-02-13T07:48:48.827Z,0.30
2018-02-13T07:51:18.416Z,0.60
2018-02-13T07:53:46.750Z,0.70
2018-02-13T07:56:14.965Z,0.50
2018-02-13T07:58:43.168Z,0.40
2018-02-13T08:01:12.164Z,0.40
2018-02-13T08:03:41.124Z,0.60
2018-02-13T08:06:09.334Z,0.70
2018-02-13T08:08:37.556Z,0.70
2018-02-13T08:11:05.783Z,0.40
2018-02-13T08:13:34.012Z,0.50
2018-02-13T08:16:02.214Z,0.80
2018-02-13T08:18:31.196Z,0.90
2018-02-13T08:20:59.793Z,1.40
2018-02-13T08:23:28.746Z,1.00
2018-02-13T08:25:56.965Z,1.40
2018-02-13T08:28:25.180Z,1.10
2018-02-13T08:30:53.360Z,1.40
2018-02-13T08:33:21.551Z,1.50
2018-02-13T08:35:49.944Z,1.80
2018-02-13T08:38:18.156Z,1.40
2018-02-13T08:40:46.348Z,1.50
2018-02-13T08:43:14.567Z,1.50
2018-02-13T08:45:43.568Z,1.60
2018-02-13T08:48:12.516Z,2.00
2018-02-13T08:50:40.709Z,2.30
2018-02-13T08:53:08.928Z,2.00
2018-02-13T08:55:37.140Z,2.30
2018-02-13T08:58:05.368Z,2.20
2018-02-13T09:00:33.622Z,2.30
2018-02-13T09:03:03.488Z,2.70
2018-02-13T09:05:31.704Z,2.90
2018-02-13T09:07:59.936Z,3.00
2018-02-13T09:10:28.143Z,2.70
2018-02-13T09:12:56.384Z,2.70
2018-02-13T09:15:24.612Z,3.60
2018-02-13T09:17:53.612Z,3.50
2018-02-13T09:20:22.695Z,3.80
2018-02-13T09:22:50.987Z,3.80
2018-02-13T09:25:19.256Z,3.90
2018-02-13T09:27:47.463Z,3.90
2018-02-13T09:30:15.672Z,4.00
2018-02-13T09:32:43.924Z,3.90
2018-02-13T09:35:12.141Z,4.50
2018-02-13T09:37:41.121Z,4.80
2018-02-13T09:40:09.335Z,5.00
2018-02-13T09:42:38.128Z,5.10
2018-02-13T09:45:06.380Z,4.70
2018-02-13T09:47:34.660Z,4.70
2018-02-13T09:50:02.852Z,4.80
2018-02-13T09:52:31.076Z,5.20
2018-02-13T09:54:59.563Z,5.20
2018-02-13T09:57:28.365Z,5.10
2018-02-13T09:59:57.354Z,5.50
2018-02-13T10:02:26.308Z,5.70
2018-02-13T10:04:54.492Z,5.30
2018-02-13T10:07:22.759Z,5.50
2018-02-13T10:09:50.973Z,5.30
2018-02-13T10:12:20.060Z,5.70
2018-02-13T10:14:49.044Z,5.60
2018-02-13T10:17:17.264Z,6.10
2018-02-13T10:19:45.448Z,5.90
2018-02-13T10:22:13.985Z,6.00
2018-02-13T10:24:42.968Z,6.00
2018-02-13T10:27:12.076Z,6.30
2018-02-13T10:29:40.297Z,6.00
2018-02-13T10:32:08.513Z,6.20
2018-02-13T10:34:37.496Z,6.50
2018-02-13T10:37:07.297Z,6.80
2018-02-13T10:39:35.492Z,6.90
2018-02-13T10:42:04.446Z,6.70
2018-02-13T10:44:32.652Z,6.80
2018-02-13T10:47:01.642Z,7.10
2018-02-13T10:49:31.061Z,7.40
2018-02-13T10:51:59.291Z,8.00
2018-02-13T10:54:27.508Z,8.20
2018-02-13T10:56:55.753Z,8.00
2018-02-13T10:59:23.984Z,8.20
2018-02-13T11:01:52.177Z,8.50
2018-02-13T11:04:20.417Z,8.80
2018-02-13T11:06:48.713Z,9.20
2018-02-13T11:09:17.093Z,8.80
2018-02-13T11:11:45.428Z,9.00
2018-02-13T11:14:14.396Z,8.90
2018-02-13T11:16:42.617Z,8.80
2018-02-13T11:19:10.849Z,8.90
2018-02-13T11:21:39.290Z,9.00
2018-02-13T11:24:07.489Z,9.70
2018-02-13T11:26:36.247Z,9.30
2018-02-13T11:29:04.445Z,9.30
2018-02-13T11:31:32.780Z,9.30
2018-02-13T11:34:00.999Z,9.70
2018-02-13T11:36:29.296Z,9.70
2018-02-13T11:38:57.525Z,9.70
2018-02-13T11:41:25.875Z,10.70
2018-02-13T11:43:54.090Z,10.80
2018-02-13T11:46:22.300Z,11.30
2018-02-13T11:48:51.284Z,11.60
2018-02-13T11:51:19.504Z,10.80
2018-02-13T11:53:47.708Z,10.40
2018-02-13T11:56:15.948Z,11.10
2018-02-13T11:58:44.158Z,12.60
2018-02-13T12:01:12.482Z,12.90
2018-02-13T12:03:40.712Z,12.80
2018-02-13T12:06:09.372Z,13.80
2018-02-13T12:08:37.584Z,13.30
2018-02-13T12:11:06.121Z,14.00
2018-02-13T12:13:34.401Z,13.90
2018-02-13T12:16:02.820Z,14.00
2018-02-13T12:18:31.033Z,14.30
2018-02-13T12:20:59.294Z,14.80
2018-02-13T12:23:28.396Z,14.00
2018-02-13T12:25:56.669Z,14.30
2018-02-13T12:28:24.881Z,15.70
2018-02-13T12:30:53.076Z,15.70
2018-02-13T12:33:21.306Z,13.60
2018-02-13T12:35:49.592Z,15.20
2018-02-13T12:38:18.410Z,17.30
2018-02-13T12:40:46.696Z,15.30
2018-02-13T12:43:14.892Z,14.40
2018-02-13T12:45:43.849Z,15.60
2018-02-13T12:48:12.919Z,17.20
2018-02-13T12:50:41.194Z,18.10
2018-02-13T12:53:09.409Z,15.40
2018-02-13T12:55:38.423Z,16.10
2018-02-13T12:58:07.852Z,18.00
2018-02-13T13:00:36.065Z,18.30
2018-02-13T13:03:04.334Z,20.30
2018-02-13T13:05:32.529Z,18.00
2018-02-13T13:08:00.720Z,18.20
2018-02-13T13:10:29.758Z,15.20
2018-02-13T13:12:57.973Z,14.80
2018-02-13T13:15:26.188Z,16.90
2018-02-13T13:17:54.464Z,19.30
2018-02-13T13:20:23.470Z,19.70
2018-02-13T13:22:51.661Z,21.30
2018-02-13T13:25:19.839Z,21.90
2018-02-13T13:27:48.090Z,20.90
2018-02-13T13:30:16.883Z,20.90
2018-02-13T13:32:45.069Z,21.40
2018-02-13T13:35:14.044Z,17.50
2018-02-13T13:37:42.220Z,19.00
2018-02-13T13:40:10.378Z,20.90
2018-02-13T13:42:38.521Z,18.20
2018-02-13T13:45:07.442Z,20.80
2018-02-13T13:47:35.717Z,19.80
2018-02-13T13:50:03.853Z,21.30
2018-02-13T13:52:32.761Z,22.40
2018-02-13T13:55:01.678Z,23.30
2018-02-13T13:57:30.244Z,22.60
2018-02-13T13:59:58.382Z,21.00
2018-02-13T14:02:26.517Z,18.50
2018-02-13T14:04:54.690Z,20.40
2018-02-13T14:07:23.543Z,19.10
2018-02-13T14:09:52.451Z,20.70
2018-02-13T14:12:20.605Z,21.30
2018-02-13T14:14:48.745Z,21.50
2018-02-13T14:17:16.922Z,18.90
2018-02-13T14:19:45.848Z,16.40
2018-02-13T14:22:14.305Z,14.20
2018-02-13T14:24:43.538Z,14.00
2018-02-13T14:27:11.700Z,16.10
2018-02-13T14:29:39.873Z,18.90
2018-02-13T14:32:08.047Z,18.00
2018-02-13T14:34:36.222Z,16.20
2018-02-13T14:37:04.369Z,15.90
2018-02-13T14:39:33.269Z,16.90
2018-02-13T14:42:01.763Z,17.10
2018-02-13T14:44:30.413Z,16.80
2018-02-13T14:46:58.573Z,14.90
2018-02-13T14:49:26.713Z,13.30
2018-02-13T14:51:54.861Z,12.40
2018-02-13T14:54:23.026Z,10.30
2018-02-13T14:56:51.170Z,9.50
2018-02-13T14:59:19.393Z,9.50
2018-02-13T15:01:47.549Z,10.70
2018-02-13T15:04:15.720Z,10.50
2018-02-13T15:06:43.904Z,10.20
2018-02-13T15:09:12.682Z,9.30
2018-02-13T15:11:40.835Z,10.40
2018-02-13T15:14:09.778Z,12.50
2018-02-13T15:16:39.437Z,12.60
2018-02-13T15:19:08.352Z,14.40
2018-02-13T15:21:36.533Z,14.10
2018-02-13T15:24:04.677Z,14.30
2018-02-13T15:26:33.613Z,15.30
2018-02-13T15:29:01.793Z,15.60
2018-02-13T15:31:29.945Z,15.10
2018-02-13T15:33:58.105Z,14.00
2018-02-13T15:36:26.298Z,13.10
2018-02-13T15:38:54.433Z,11.50
2018-02-13T15:41:22.585Z,10.30
2018-02-13T15:43:50.809Z,10.30
2018-02-13T15:46:18.960Z,9.60
2018-02-13T15:48:47.103Z,9.50
2018-02-13T15:51:15.254Z,8.20
2018-02-13T15:53:43.396Z,8.40
2018-02-13T15:56:11.729Z,8.10
2018-02-13T15:58:40.679Z,7.50
2018-02-13T16:01:08.811Z,7.30
2018-02-13T16:03:36.970Z,7.20
2018-02-13T16:06:05.883Z,6.50
2018-02-13T16:08:34.045Z,6.10
2018-02-13T16:11:02.211Z,6.20
2018-02-13T16:13:31.902Z,6.40
2018-02-13T16:16:00.053Z,5.80
2018-02-13T16:18:28.293Z,6.00
2018-02-13T16:20:56.429Z,6.00
2018-02-13T16:23:25.365Z,5.20
2018-02-13T16:25:53.525Z,5.30
2018-02-13T16:28:21.709Z,5.10
2018-02-13T16:30:49.863Z,4.90
2018-02-13T16:33:18.034Z,4.90
2018-02-13T16:35:46.226Z,4.90
2018-02-13T16:38:14.374Z,4.60
2018-02-13T16:40:42.569Z,4.70
2018-02-13T16:43:10.853Z,4.40
2018-02-13T16:45:39.036Z,4.00
2018-02-13T16:48:07.197Z,4.20
2018-02-13T16:50:35.378Z,4.10
2018-02-13T16:53:03.506Z,3.90
2018-02-13T16:55:32.415Z,3.90
2018-02-13T16:58:00.566Z,4.20
2018-02-13T17:00:30.284Z,3.90
2018-02-13T17:02:58.433Z,4.20
2018-02-13T17:05:26.654Z,4.20
2018-02-13T17:07:54.784Z,4.20
2018-02-13T17:10:23.687Z,3.90
2018-02-13T17:12:52.661Z,3.70
2018-02-13T17:15:21.113Z,3.60
2018-02-13T17:17:49.254Z,3.40
2018-02-13T17:20:17.415Z,3.10
2018-02-13T17:22:45.550Z,3.10
2018-02-13T17:25:13.689Z,3.40
2018-02-13T17:27:41.837Z,3.10
2018-02-13T17:30:09.973Z,3.10
2018-02-13T17:32:38.218Z,3.10
2018-02-13T17:35:06.380Z,3.40
2018-02-13T17:37:34.581Z,3.10
2018-02-13T17:40:02.815Z,3.20
2018-02-13T17:42:30.965Z,3.40
2018-02-13T17:44:59.122Z,3.50
2018-02-13T17:47:28.026Z,3.60
2018-02-13T17:49:56.161Z,3.80
2018-02-13T17:52:24.318Z,3.80
2018-02-13T17:54:52.976Z,4.10
2018-02-13T17:57:21.117Z,4.10
2018-02-13T17:59:50.025Z,3.40
2018-02-13T18:02:18.193Z,3.70
2018-02-13T18:04:46.338Z,3.90
2018-02-13T18:07:14.569Z,3.90
2018-02-13T18:09:42.727Z,4.00
2018-02-13T18:12:10.916Z,3.90
2018-02-13T18:14:39.194Z,3.70
2018-02-13T18:17:07.336Z,3.50
2018-02-13T18:19:35.485Z,3.60
2018-02-13T18:22:04.629Z,3.40
2018-02-13T18:24:33.615Z,3.50
2018-02-13T18:27:01.754Z,3.50
2018-02-13T18:29:30.698Z,3.40
2018-02-13T18:31:58.842Z,3.50
2018-02-13T18:34:27.153Z,3.40
2018-02-13T18:36:55.312Z,3.20
2018-02-13T18:39:24.052Z,3.30
2018-02-13T18:41:52.995Z,3.30
2018-02-13T18:44:21.972Z,3.00
2018-02-13T18:46:50.101Z,3.20
2018-02-13T18:49:19.055Z,3.20
2018-02-13T18:51:47.192Z,3.20
2018-02-13T18:54:15.333Z,3.10
2018-02-13T18:56:44.297Z,3.10
2018-02-13T18:59:12.545Z,3.00
2018-02-13T19:01:40.694Z,3.00
2018-02-13T19:04:08.855Z,3.00
2018-02-13T19:06:37.781Z,2.80
2018-02-13T19:09:05.973Z,2.80
2018-02-13T19:11:34.141Z,2.70
2018-02-13T19:14:02.282Z,2.60
2018-02-13T19:16:30.466Z,2.70
2018-02-13T19:18:58.596Z,2.70
2018-02-13T19:21:27.498Z,2.70
2018-02-13T19:23:56.429Z,2.70
2018-02-13T19:26:24.566Z,2.70
2018-02-13T19:28:52.705Z,2.60
2018-02-13T19:31:20.860Z,2.60
2018-02-13T19:33:48.992Z,2.50
2018-02-13T19:36:17.290Z,2.40
2018-02-13T19:38:45.425Z,2.50
2018-02-13T19:41:14.333Z,2.50
2018-02-13T19:43:42.514Z,2.50
2018-02-13T19:46:10.654Z,2.40
2018-02-13T19:48:39.561Z,2.40
2018-02-13T19:51:07.733Z,2.20
2018-02-13T19:53:35.922Z,2.30
2018-02-13T19:56:04.166Z,2.30
2018-02-13T19:58:33.197Z,2.30
2018-02-13T20:01:01.341Z,2.20
2018-02-13T20:03:29.486Z,2.20
2018-02-13T20:05:58.502Z,2.20
2018-02-13T20:08:26.640Z,2.20
2018-02-13T20:10:54.781Z,2.10
2018-02-13T20:13:22.941Z,2.10
2018-02-13T20:15:51.073Z,2.10
2018-02-13T20:18:19.208Z,2.10
2018-02-13T20:20:47.793Z,2.00
2018-02-13T20:23:15.934Z,1.80
2018-02-13T20:25:44.079Z,1.90
2018-02-13T20:28:12.998Z,1.90
2018-02-13T20:30:41.165Z,2.00
2018-02-13T20:33:09.860Z,1.90
2018-02-13T20:35:38.001Z,1.80
2018-02-13T20:38:06.901Z,1.80
2018-02-13T20:40:35.840Z,1.80
2018-02-13T20:43:03.980Z,1.80
2018-02-13T20:45:32.169Z,1.80
2018-02-13T20:48:00.317Z,1.80
2018-02-13T20:50:28.485Z,1.80
2018-02-13T20:52:56.626Z,1.70
2018-02-13T20:55:24.770Z,1.60
2018-02-13T20:57:53.033Z,1.10
2018-02-13T21:00:21.249Z,1.10
2018-02-13T21:02:49.385Z,1.40
2018-02-13T21:05:17.555Z,1.20
2018-02-13T21:07:46.253Z,1.10
2018-02-13T21:10:14.389Z,1.20
2018-02-13T21:12:42.574Z,1.40
2018-02-13T21:15:10.749Z,1.20
2018-02-13T21:17:38.888Z,1.40
2018-02-13T21:20:07.833Z,1.30
2018-02-13T21:22:35.973Z,1.20
2018-02-13T21:25:04.101Z,1.20
2018-02-13T21:27:32.333Z,1.40
2018-02-13T21:30:00.505Z,1.30
2018-02-13T21:32:28.702Z,1.40
2018-02-13T21:34:56.841Z,1.40
2018-02-13T21:37:24.969Z,1.30
2018-02-13T21:39:53.132Z,1.40
2018-02-13T21:42:21.261Z,1.30
2018-02-13T21:44:49.398Z,1.40
2018-02-13T21:47:18.447Z,1.30
2018-02-13T21:49:46.586Z,1.20
2018-02-13T21:52:14.725Z,1.20
2018-02-13T21:54:43.421Z,1.30
2018-02-13T21:57:12.358Z,1.20
2018-02-13T21:59:40.533Z,1.20
2018-02-13T22:02:08.946Z,1.20
2018-02-13T22:04:37.077Z,1.20
2018-02-13T22:07:05.224Z,1.10
2018-02-13T22:09:33.373Z,0.90
2018-02-13T22:12:01.635Z,1.10
2018-02-13T22:14:29.769Z,1.10
2018-02-13T22:16:57.911Z,1.10
2018-02-13T22:19:26.184Z,1.00
2018-02-13T22:21:55.157Z,1.00
2018-02-13T22:24:23.303Z,0.90
2018-02-13T22:26:51.662Z,0.90
2018-02-13T22:29:19.827Z,0.80
2018-02-13T22:31:47.961Z,0.80
2018-02-13T22:34:16.939Z,0.70
2018-02-13T22:36:45.172Z,0.60
2018-02-13T22:39:13.329Z,0.30
2018-02-13T22:41:41.465Z,0.50
2018-02-13T22:44:09.609Z,0.70
2018-02-13T22:46:37.958Z,0.70
2018-02-13T22:49:06.093Z,0.60
2018-02-13T22:51:35.559Z,0.80
2018-02-13T22:54:03.707Z,0.80
2018-02-13T22:56:32.637Z,0.80
2018-02-13T22:59:01.610Z,0.70
2018-02-13T23:01:30.353Z,0.70
2018-02-13T23:03:59.325Z,0.60
2018-02-13T23:06:28.222Z,0.70
2018-02-13T23:08:57.117Z,0.60
2018-02-13T23:11:26.045Z,0.70
2018-02-13T23:13:54.176Z,0.70
2018-02-13T23:16:23.081Z,0.70
2018-02-13T23:18:51.257Z,0.60
2018-02-13T23:21:19.449Z,0.60
2018-02-13T23:23:47.585Z,0.70
2018-02-13T23:26:16.534Z,0.60
2018-02-13T23:28:44.690Z,0.70
2018-02-13T23:31:12.825Z,0.70
2018-02-13T23:33:41.855Z,0.60
2018-02-13T23:36:10.016Z,0.60
2018-02-13T23:38:38.153Z,0.60
2018-02-13T23:41:07.084Z,0.60
2018-02-13T23:43:35.226Z,0.60
2018-02-13T23:46:04.134Z,0.10
2018-02-13T23:48:32.293Z,0.50
2018-02-13T23:51:00.497Z,0.40
2018-02-13T23:53:28.674Z,0.50
2018-02-13T23:55:57.658Z,0.50
2018-02-13T23:58:25.794Z,0.50
